sensor_id;sensor_type;location;lat;lon;timestamp;P1;durP1;ratioP1;P2;durP2;ratioP2
69594;SDS011;56800;52.142;5.364;2023-02-19T00:01:07;23.15;;;7.13;;
69594;SDS011;56800;52.142;5.364;2023-02-19T00:03:39;31.33;;;6.70;;
69594;SDS011;56800;52.142;5.364;2023-02-19T00:06:08;27.55;;;6.70;;
69594;SDS011;56800;52.142;5.364;2023-02-19T00:08:36;22.55;;;6.20;;
69594;SDS011;56800;52.142;5.364;2023-02-19T00:11:07;23.83;;;6.38;;
69594;SDS011;56800;52.142;5.364;2023-02-19T00:13:38;23.80;;;5.93;;
69594;SDS011;56800;52.142;5.364;2023-02-19T00:16:08;22.03;;;5.63;;
69594;SDS011;56800;52.142;5.364;2023-02-19T00:18:36;25.35;;;5.03;;
69594;SDS011;56800;52.142;5.364;2023-02-19T00:21:02;22.60;;;5.15;;
69594;SDS011;56800;52.142;5.364;2023-02-19T00:23:30;25.45;;;5.20;;
69594;SDS011;56800;52.142;5.364;2023-02-19T00:26:04;27.27;;;5.60;;
69594;SDS011;56800;52.142;5.364;2023-02-19T00:28:44;22.73;;;4.43;;
69594;SDS011;56800;52.142;5.364;2023-02-19T00:31:21;23.05;;;4.97;;
69594;SDS011;56800;52.142;5.364;2023-02-19T00:33:59;21.42;;;4.68;;
69594;SDS011;56800;52.142;5.364;2023-02-19T00:36:29;18.00;;;4.50;;
69594;SDS011;56800;52.142;5.364;2023-02-19T00:38:56;23.05;;;5.18;;
69594;SDS011;56800;52.142;5.364;2023-02-19T00:41:23;17.30;;;4.63;;
69594;SDS011;56800;52.142;5.364;2023-02-19T00:43:54;28.40;;;5.90;;
69594;SDS011;56800;52.142;5.364;2023-02-19T00:46:26;18.90;;;5.50;;
69594;SDS011;56800;52.142;5.364;2023-02-19T00:48:58;22.20;;;5.90;;
69594;SDS011;56800;52.142;5.364;2023-02-19T00:51:26;20.30;;;5.85;;
69594;SDS011;56800;52.142;5.364;2023-02-19T00:53:55;27.17;;;6.40;;
69594;SDS011;56800;52.142;5.364;2023-02-19T00:56:22;23.15;;;6.40;;
69594;SDS011;56800;52.142;5.364;2023-02-19T00:58:49;21.38;;;6.32;;
69594;SDS011;56800;52.142;5.364;2023-02-19T01:01:16;27.30;;;6.60;;
69594;SDS011;56800;52.142;5.364;2023-02-19T01:03:44;23.58;;;7.00;;
69594;SDS011;56800;52.142;5.364;2023-02-19T01:06:12;22.97;;;6.50;;
69594;SDS011;56800;52.142;5.364;2023-02-19T01:08:41;28.52;;;7.20;;
69594;SDS011;56800;52.142;5.364;2023-02-19T01:11:08;26.35;;;6.78;;
69594;SDS011;56800;52.142;5.364;2023-02-19T01:13:36;28.92;;;7.38;;
69594;SDS011;56800;52.142;5.364;2023-02-19T01:16:12;28.98;;;8.02;;
69594;SDS011;56800;52.142;5.364;2023-02-19T01:18:40;30.50;;;7.43;;
69594;SDS011;56800;52.142;5.364;2023-02-19T01:21:08;27.88;;;7.35;;
69594;SDS011;56800;52.142;5.364;2023-02-19T01:23:38;29.92;;;7.35;;
69594;SDS011;56800;52.142;5.364;2023-02-19T01:26:05;25.52;;;7.10;;
69594;SDS011;56800;52.142;5.364;2023-02-19T01:28:33;22.98;;;7.63;;
69594;SDS011;56800;52.142;5.364;2023-02-19T01:31:04;20.87;;;7.10;;
69594;SDS011;56800;52.142;5.364;2023-02-19T01:33:33;22.92;;;6.97;;
69594;SDS011;56800;52.142;5.364;2023-02-19T01:36:03;25.40;;;8.30;;
69594;SDS011;56800;52.142;5.364;2023-02-19T01:38:32;27.55;;;7.47;;
69594;SDS011;56800;52.142;5.364;2023-02-19T01:40:59;18.15;;;6.40;;
69594;SDS011;56800;52.142;5.364;2023-02-19T01:43:28;31.93;;;7.07;;
69594;SDS011;56800;52.142;5.364;2023-02-19T01:45:56;20.10;;;6.90;;
69594;SDS011;56800;52.142;5.364;2023-02-19T01:48:26;25.50;;;6.72;;
69594;SDS011;56800;52.142;5.364;2023-02-19T01:51:01;27.60;;;6.97;;
69594;SDS011;56800;52.142;5.364;2023-02-19T01:53:34;30.20;;;7.32;;
69594;SDS011;56800;52.142;5.364;2023-02-19T01:56:03;32.50;;;7.27;;
69594;SDS011;56800;52.142;5.364;2023-02-19T01:58:32;20.77;;;7.05;;
69594;SDS011;56800;52.142;5.364;2023-02-19T02:01:00;22.38;;;6.53;;
69594;SDS011;56800;52.142;5.364;2023-02-19T02:03:31;22.02;;;6.53;;
69594;SDS011;56800;52.142;5.364;2023-02-19T02:06:11;22.63;;;6.45;;
69594;SDS011;56800;52.142;5.364;2023-02-19T02:08:51;21.97;;;6.00;;
69594;SDS011;56800;52.142;5.364;2023-02-19T02:11:39;23.95;;;5.97;;
69594;SDS011;56800;52.142;5.364;2023-02-19T02:14:10;27.80;;;6.53;;
69594;SDS011;56800;52.142;5.364;2023-02-19T02:22:28;22.47;;;5.10;;
69594;SDS011;56800;52.142;5.364;2023-02-19T02:31:00;26.15;;;5.00;;
69594;SDS011;56800;52.142;5.364;2023-02-19T02:35:50;22.67;;;4.33;;
69594;SDS011;56800;52.142;5.364;2023-02-19T02:38:22;19.85;;;4.32;;
69594;SDS011;56800;52.142;5.364;2023-02-19T02:40:53;16.40;;;3.88;;
69594;SDS011;56800;52.142;5.364;2023-02-19T02:43:21;21.15;;;4.18;;
69594;SDS011;56800;52.142;5.364;2023-02-19T02:45:48;24.10;;;4.03;;
69594;SDS011;56800;52.142;5.364;2023-02-19T02:51:12;19.05;;;4.55;;
69594;SDS011;56800;52.142;5.364;2023-02-19T02:54:00;20.13;;;3.92;;
69594;SDS011;56800;52.142;5.364;2023-02-19T02:56:50;23.17;;;4.18;;
69594;SDS011;56800;52.142;5.364;2023-02-19T02:59:18;22.10;;;3.75;;
69594;SDS011;56800;52.142;5.364;2023-02-19T03:01:49;17.20;;;4.10;;
69594;SDS011;56800;52.142;5.364;2023-02-19T03:04:43;19.05;;;3.83;;
69594;SDS011;56800;52.142;5.364;2023-02-19T03:07:35;20.30;;;3.95;;
69594;SDS011;56800;52.142;5.364;2023-02-19T03:10:12;14.48;;;3.67;;
69594;SDS011;56800;52.142;5.364;2023-02-19T03:12:43;21.05;;;4.57;;
69594;SDS011;56800;52.142;5.364;2023-02-19T03:15:32;23.07;;;4.17;;
69594;SDS011;56800;52.142;5.364;2023-02-19T03:18:23;21.27;;;4.40;;
69594;SDS011;56800;52.142;5.364;2023-02-19T03:21:10;22.10;;;4.65;;
69594;SDS011;56800;52.142;5.364;2023-02-19T03:23:40;21.55;;;4.50;;
69594;SDS011;56800;52.142;5.364;2023-02-19T03:26:47;21.10;;;4.47;;
69594;SDS011;56800;52.142;5.364;2023-02-19T03:29:22;17.77;;;5.07;;
69594;SDS011;56800;52.142;5.364;2023-02-19T03:31:52;16.05;;;4.13;;
69594;SDS011;56800;52.142;5.364;2023-02-19T03:34:30;15.35;;;4.95;;
69594;SDS011;56800;52.142;5.364;2023-02-19T03:37:09;22.05;;;5.00;;
69594;SDS011;56800;52.142;5.364;2023-02-19T03:39:43;14.48;;;4.88;;
69594;SDS011;56800;52.142;5.364;2023-02-19T03:42:18;20.83;;;5.40;;
69594;SDS011;56800;52.142;5.364;2023-02-19T03:45:09;17.50;;;4.50;;
69594;SDS011;56800;52.142;5.364;2023-02-19T03:47:52;19.67;;;4.97;;
69594;SDS011;56800;52.142;5.364;2023-02-19T03:50:27;15.77;;;4.38;;
69594;SDS011;56800;52.142;5.364;2023-02-19T03:58:39;21.00;;;4.45;;
69594;SDS011;56800;52.142;5.364;2023-02-19T04:01:12;16.42;;;4.75;;
69594;SDS011;56800;52.142;5.364;2023-02-19T04:03:55;21.35;;;4.97;;
69594;SDS011;56800;52.142;5.364;2023-02-19T04:06:36;18.55;;;4.47;;
69594;SDS011;56800;52.142;5.364;2023-02-19T04:09:07;17.90;;;4.53;;
69594;SDS011;56800;52.142;5.364;2023-02-19T04:11:37;20.02;;;5.20;;
69594;SDS011;56800;52.142;5.364;2023-02-19T04:14:15;24.55;;;4.95;;
69594;SDS011;56800;52.142;5.364;2023-02-19T04:16:46;21.20;;;4.32;;
69594;SDS011;56800;52.142;5.364;2023-02-19T04:19:18;21.88;;;5.13;;
69594;SDS011;56800;52.142;5.364;2023-02-19T04:21:48;16.47;;;4.63;;
69594;SDS011;56800;52.142;5.364;2023-02-19T04:24:36;20.45;;;4.60;;
69594;SDS011;56800;52.142;5.364;2023-02-19T04:27:07;14.45;;;4.38;;
69594;SDS011;56800;52.142;5.364;2023-02-19T04:29:35;17.45;;;4.47;;
69594;SDS011;56800;52.142;5.364;2023-02-19T04:32:04;20.45;;;4.57;;
69594;SDS011;56800;52.142;5.364;2023-02-19T04:34:31;18.10;;;4.37;;
69594;SDS011;56800;52.142;5.364;2023-02-19T04:36:58;17.95;;;4.65;;
69594;SDS011;56800;52.142;5.364;2023-02-19T04:39:24;15.45;;;4.82;;
69594;SDS011;56800;52.142;5.364;2023-02-19T04:41:51;23.58;;;4.68;;
69594;SDS011;56800;52.142;5.364;2023-02-19T04:44:17;21.02;;;5.05;;
69594;SDS011;56800;52.142;5.364;2023-02-19T04:46:44;23.33;;;5.20;;
69594;SDS011;56800;52.142;5.364;2023-02-19T04:49:11;25.13;;;4.70;;
69594;SDS011;56800;52.142;5.364;2023-02-19T04:51:38;19.95;;;4.38;;
69594;SDS011;56800;52.142;5.364;2023-02-19T04:54:06;15.15;;;4.10;;
69594;SDS011;56800;52.142;5.364;2023-02-19T04:56:33;17.98;;;4.50;;
69594;SDS011;56800;52.142;5.364;2023-02-19T04:59:00;14.73;;;4.07;;
69594;SDS011;56800;52.142;5.364;2023-02-19T05:01:26;21.63;;;4.63;;
69594;SDS011;56800;52.142;5.364;2023-02-19T05:03:53;21.27;;;4.15;;
69594;SDS011;56800;52.142;5.364;2023-02-19T05:06:20;24.40;;;4.15;;
69594;SDS011;56800;52.142;5.364;2023-02-19T05:08:47;17.38;;;4.43;;
69594;SDS011;56800;52.142;5.364;2023-02-19T05:11:13;12.77;;;4.10;;
69594;SDS011;56800;52.142;5.364;2023-02-19T05:13:40;14.85;;;3.95;;
69594;SDS011;56800;52.142;5.364;2023-02-19T05:16:10;22.65;;;4.38;;
69594;SDS011;56800;52.142;5.364;2023-02-19T05:18:41;23.30;;;4.28;;
69594;SDS011;56800;52.142;5.364;2023-02-19T05:21:09;19.75;;;4.65;;
69594;SDS011;56800;52.142;5.364;2023-02-19T05:23:37;19.93;;;4.20;;
69594;SDS011;56800;52.142;5.364;2023-02-19T05:26:05;20.63;;;3.95;;
69594;SDS011;56800;52.142;5.364;2023-02-19T05:28:32;12.20;;;3.80;;
69594;SDS011;56800;52.142;5.364;2023-02-19T05:31:02;15.85;;;4.53;;
69594;SDS011;56800;52.142;5.364;2023-02-19T05:33:31;26.35;;;4.25;;
69594;SDS011;56800;52.142;5.364;2023-02-19T05:35:59;28.67;;;5.53;;
69594;SDS011;56800;52.142;5.364;2023-02-19T05:38:34;19.55;;;4.53;;
69594;SDS011;56800;52.142;5.364;2023-02-19T05:43:41;19.55;;;4.18;;
69594;SDS011;56800;52.142;5.364;2023-02-19T05:46:09;15.68;;;4.47;;
69594;SDS011;56800;52.142;5.364;2023-02-19T05:48:38;24.73;;;4.07;;
69594;SDS011;56800;52.142;5.364;2023-02-19T05:51:06;22.00;;;4.32;;
69594;SDS011;56800;52.142;5.364;2023-02-19T05:53:35;22.10;;;4.25;;
69594;SDS011;56800;52.142;5.364;2023-02-19T05:56:02;20.73;;;4.00;;
69594;SDS011;56800;52.142;5.364;2023-02-19T05:58:29;14.93;;;4.15;;
69594;SDS011;56800;52.142;5.364;2023-02-19T06:00:56;19.83;;;4.50;;
69594;SDS011;56800;52.142;5.364;2023-02-19T06:03:23;21.13;;;4.47;;
69594;SDS011;56800;52.142;5.364;2023-02-19T06:05:50;26.08;;;5.20;;
69594;SDS011;56800;52.142;5.364;2023-02-19T06:08:16;16.15;;;4.20;;
69594;SDS011;56800;52.142;5.364;2023-02-19T06:10:43;15.63;;;4.40;;
69594;SDS011;56800;52.142;5.364;2023-02-19T06:13:10;16.70;;;3.83;;
69594;SDS011;56800;52.142;5.364;2023-02-19T06:15:36;20.85;;;4.28;;
69594;SDS011;56800;52.142;5.364;2023-02-19T06:18:03;20.70;;;5.32;;
69594;SDS011;56800;52.142;5.364;2023-02-19T06:20:30;20.98;;;4.88;;
69594;SDS011;56800;52.142;5.364;2023-02-19T06:22:58;18.67;;;4.50;;
69594;SDS011;56800;52.142;5.364;2023-02-19T06:25:24;17.07;;;4.33;;
69594;SDS011;56800;52.142;5.364;2023-02-19T06:27:51;19.90;;;4.38;;
69594;SDS011;56800;52.142;5.364;2023-02-19T06:30:18;14.48;;;4.70;;
69594;SDS011;56800;52.142;5.364;2023-02-19T06:32:45;19.35;;;5.00;;
69594;SDS011;56800;52.142;5.364;2023-02-19T06:35:12;15.43;;;4.70;;
69594;SDS011;56800;52.142;5.364;2023-02-19T06:37:38;12.90;;;4.60;;
69594;SDS011;56800;52.142;5.364;2023-02-19T06:40:05;15.25;;;5.57;;
69594;SDS011;56800;52.142;5.364;2023-02-19T06:42:33;16.40;;;5.07;;
69594;SDS011;56800;52.142;5.364;2023-02-19T06:44:59;16.30;;;4.93;;
69594;SDS011;56800;52.142;5.364;2023-02-19T06:47:29;15.13;;;5.13;;
69594;SDS011;56800;52.142;5.364;2023-02-19T06:49:57;16.47;;;4.90;;
69594;SDS011;56800;52.142;5.364;2023-02-19T06:52:24;13.18;;;4.97;;
69594;SDS011;56800;52.142;5.364;2023-02-19T06:54:52;15.00;;;5.50;;
69594;SDS011;56800;52.142;5.364;2023-02-19T06:57:19;15.55;;;5.05;;
69594;SDS011;56800;52.142;5.364;2023-02-19T06:59:45;16.42;;;5.38;;
69594;SDS011;56800;52.142;5.364;2023-02-19T07:02:12;17.57;;;5.97;;
69594;SDS011;56800;52.142;5.364;2023-02-19T07:04:39;15.18;;;5.25;;
69594;SDS011;56800;52.142;5.364;2023-02-19T07:07:05;17.55;;;5.45;;
69594;SDS011;56800;52.142;5.364;2023-02-19T07:09:32;21.52;;;5.53;;
69594;SDS011;56800;52.142;5.364;2023-02-19T07:11:58;17.73;;;5.60;;
69594;SDS011;56800;52.142;5.364;2023-02-19T07:14:25;25.43;;;5.97;;
69594;SDS011;56800;52.142;5.364;2023-02-19T07:16:52;23.50;;;5.68;;
69594;SDS011;56800;52.142;5.364;2023-02-19T07:19:18;29.75;;;6.10;;
69594;SDS011;56800;52.142;5.364;2023-02-19T07:21:45;22.25;;;6.00;;
69594;SDS011;56800;52.142;5.364;2023-02-19T07:24:12;26.02;;;6.05;;
69594;SDS011;56800;52.142;5.364;2023-02-19T07:26:38;21.90;;;5.63;;
69594;SDS011;56800;52.142;5.364;2023-02-19T07:29:05;29.10;;;7.07;;
69594;SDS011;56800;52.142;5.364;2023-02-19T07:31:32;32.25;;;6.88;;
69594;SDS011;56800;52.142;5.364;2023-02-19T07:33:59;23.48;;;6.45;;
69594;SDS011;56800;52.142;5.364;2023-02-19T07:36:25;27.90;;;6.60;;
69594;SDS011;56800;52.142;5.364;2023-02-19T07:38:53;23.77;;;6.63;;
69594;SDS011;56800;52.142;5.364;2023-02-19T07:41:23;27.40;;;6.20;;
69594;SDS011;56800;52.142;5.364;2023-02-19T07:43:51;26.30;;;6.55;;
69594;SDS011;56800;52.142;5.364;2023-02-19T07:46:19;25.65;;;6.95;;
69594;SDS011;56800;52.142;5.364;2023-02-19T07:48:47;30.67;;;7.50;;
69594;SDS011;56800;52.142;5.364;2023-02-19T07:51:14;35.13;;;8.07;;
69594;SDS011;56800;52.142;5.364;2023-02-19T07:53:44;29.60;;;7.85;;
69594;SDS011;56800;52.142;5.364;2023-02-19T07:56:11;27.73;;;7.00;;
69594;SDS011;56800;52.142;5.364;2023-02-19T07:58:38;28.50;;;8.23;;
69594;SDS011;56800;52.142;5.364;2023-02-19T08:01:09;28.63;;;8.23;;
69594;SDS011;56800;52.142;5.364;2023-02-19T08:03:39;31.57;;;7.47;;
69594;SDS011;56800;52.142;5.364;2023-02-19T08:06:06;29.95;;;7.93;;
69594;SDS011;56800;52.142;5.364;2023-02-19T08:08:33;27.35;;;7.72;;
69594;SDS011;56800;52.142;5.364;2023-02-19T08:11:00;29.42;;;7.60;;
69594;SDS011;56800;52.142;5.364;2023-02-19T08:13:47;27.80;;;7.93;;
69594;SDS011;56800;52.142;5.364;2023-02-19T08:16:15;27.00;;;8.37;;
69594;SDS011;56800;52.142;5.364;2023-02-19T08:18:58;32.08;;;8.32;;
69594;SDS011;56800;52.142;5.364;2023-02-19T08:21:25;28.98;;;8.93;;
69594;SDS011;56800;52.142;5.364;2023-02-19T08:23:52;27.20;;;9.45;;
69594;SDS011;56800;52.142;5.364;2023-02-19T08:26:19;27.20;;;8.35;;
69594;SDS011;56800;52.142;5.364;2023-02-19T08:28:46;19.87;;;7.93;;
69594;SDS011;56800;52.142;5.364;2023-02-19T08:31:13;28.88;;;8.45;;
69594;SDS011;56800;52.142;5.364;2023-02-19T08:33:40;25.65;;;8.20;;
69594;SDS011;56800;52.142;5.364;2023-02-19T08:36:07;25.52;;;9.10;;
69594;SDS011;56800;52.142;5.364;2023-02-19T08:38:36;25.77;;;9.40;;
69594;SDS011;56800;52.142;5.364;2023-02-19T08:41:04;23.13;;;9.10;;
69594;SDS011;56800;52.142;5.364;2023-02-19T08:43:32;27.63;;;9.63;;
69594;SDS011;56800;52.142;5.364;2023-02-19T08:45:59;22.52;;;9.07;;
69594;SDS011;56800;52.142;5.364;2023-02-19T08:48:25;29.02;;;9.77;;
69594;SDS011;56800;52.142;5.364;2023-02-19T08:50:56;25.30;;;9.40;;
69594;SDS011;56800;52.142;5.364;2023-02-19T08:53:25;32.70;;;10.00;;
69594;SDS011;56800;52.142;5.364;2023-02-19T08:55:52;24.80;;;9.77;;
69594;SDS011;56800;52.142;5.364;2023-02-19T08:58:19;26.30;;;9.57;;
69594;SDS011;56800;52.142;5.364;2023-02-19T09:00:45;33.25;;;9.75;;
69594;SDS011;56800;52.142;5.364;2023-02-19T09:03:12;26.27;;;9.77;;
69594;SDS011;56800;52.142;5.364;2023-02-19T09:05:39;27.60;;;9.37;;
69594;SDS011;56800;52.142;5.364;2023-02-19T09:08:07;27.48;;;9.75;;
69594;SDS011;56800;52.142;5.364;2023-02-19T09:10:34;28.77;;;10.10;;
69594;SDS011;56800;52.142;5.364;2023-02-19T09:13:01;25.48;;;10.25;;
69594;SDS011;56800;52.142;5.364;2023-02-19T09:15:27;26.80;;;9.25;;
69594;SDS011;56800;52.142;5.364;2023-02-19T09:17:54;19.30;;;9.20;;
69594;SDS011;56800;52.142;5.364;2023-02-19T09:20:21;25.58;;;8.90;;
69594;SDS011;56800;52.142;5.364;2023-02-19T09:22:48;21.27;;;8.55;;
69594;SDS011;56800;52.142;5.364;2023-02-19T09:25:15;24.10;;;8.20;;
69594;SDS011;56800;52.142;5.364;2023-02-19T09:27:41;27.42;;;7.63;;
69594;SDS011;56800;52.142;5.364;2023-02-19T09:30:08;24.50;;;7.30;;
69594;SDS011;56800;52.142;5.364;2023-02-19T09:32:35;18.60;;;6.63;;
69594;SDS011;56800;52.142;5.364;2023-02-19T09:35:02;21.13;;;7.05;;
69594;SDS011;56800;52.142;5.364;2023-02-19T09:37:28;22.58;;;5.72;;
69594;SDS011;56800;52.142;5.364;2023-02-19T09:39:58;18.00;;;6.28;;
69594;SDS011;56800;52.142;5.364;2023-02-19T09:42:26;14.87;;;5.80;;
69594;SDS011;56800;52.142;5.364;2023-02-19T09:44:56;14.73;;;5.30;;
69594;SDS011;56800;52.142;5.364;2023-02-19T09:47:26;16.50;;;4.82;;
69594;SDS011;56800;52.142;5.364;2023-02-19T09:49:56;20.15;;;4.85;;
69594;SDS011;56800;52.142;5.364;2023-02-19T09:52:41;18.58;;;5.32;;
69594;SDS011;56800;52.142;5.364;2023-02-19T09:57:47;13.05;;;4.10;;
69594;SDS011;56800;52.142;5.364;2023-02-19T10:00:19;14.77;;;4.72;;
69594;SDS011;56800;52.142;5.364;2023-02-19T10:02:52;16.95;;;4.00;;
69594;SDS011;56800;52.142;5.364;2023-02-19T10:05:20;12.10;;;3.85;;
69594;SDS011;56800;52.142;5.364;2023-02-19T10:07:50;13.13;;;3.90;;
69594;SDS011;56800;52.142;5.364;2023-02-19T10:10:23;13.38;;;4.03;;
69594;SDS011;56800;52.142;5.364;2023-02-19T10:12:54;6.22;;;2.67;;
69594;SDS011;56800;52.142;5.364;2023-02-19T10:15:28;4.70;;;2.08;;
69594;SDS011;56800;52.142;5.364;2023-02-19T10:17:59;3.72;;;1.95;;
69594;SDS011;56800;52.142;5.364;2023-02-19T10:20:27;4.67;;;1.80;;
69594;SDS011;56800;52.142;5.364;2023-02-19T10:22:58;4.90;;;1.63;;
69594;SDS011;56800;52.142;5.364;2023-02-19T10:25:28;4.53;;;2.03;;
69594;SDS011;56800;52.142;5.364;2023-02-19T10:27:57;5.13;;;2.00;;
69594;SDS011;56800;52.142;5.364;2023-02-19T10:30:27;4.00;;;2.15;;
69594;SDS011;56800;52.142;5.364;2023-02-19T10:32:57;3.27;;;1.53;;
69594;SDS011;56800;52.142;5.364;2023-02-19T10:35:27;4.57;;;1.60;;
69594;SDS011;56800;52.142;5.364;2023-02-19T10:37:55;3.80;;;2.10;;
69594;SDS011;56800;52.142;5.364;2023-02-19T10:40:24;3.72;;;1.80;;
69594;SDS011;56800;52.142;5.364;2023-02-19T10:42:55;4.85;;;2.13;;
69594;SDS011;56800;52.142;5.364;2023-02-19T10:45:39;4.57;;;2.27;;
69594;SDS011;56800;52.142;5.364;2023-02-19T10:48:22;6.85;;;2.00;;
69594;SDS011;56800;52.142;5.364;2023-02-19T10:50:54;3.90;;;2.10;;
69594;SDS011;56800;52.142;5.364;2023-02-19T10:56:12;3.97;;;1.85;;
69594;SDS011;56800;52.142;5.364;2023-02-19T10:58:50;4.77;;;2.00;;
69594;SDS011;56800;52.142;5.364;2023-02-19T11:03:46;3.35;;;2.03;;
69594;SDS011;56800;52.142;5.364;2023-02-19T11:06:14;6.38;;;1.73;;
69594;SDS011;56800;52.142;5.364;2023-02-19T11:11:27;7.13;;;2.10;;
69594;SDS011;56800;52.142;5.364;2023-02-19T11:14:14;3.63;;;1.85;;
69594;SDS011;56800;52.142;5.364;2023-02-19T11:16:50;4.95;;;2.60;;
69594;SDS011;56800;52.142;5.364;2023-02-19T11:19:35;4.93;;;2.20;;
69594;SDS011;56800;52.142;5.364;2023-02-19T11:25:06;6.17;;;2.90;;
69594;SDS011;56800;52.142;5.364;2023-02-19T11:27:52;6.22;;;3.05;;
69594;SDS011;56800;52.142;5.364;2023-02-19T11:35:50;4.53;;;2.10;;
69594;SDS011;56800;52.142;5.364;2023-02-19T11:38:23;3.93;;;2.10;;
69594;SDS011;56800;52.142;5.364;2023-02-19T11:49:12;5.88;;;2.03;;
69594;SDS011;56800;52.142;5.364;2023-02-19T11:54:49;3.67;;;2.00;;
69594;SDS011;56800;52.142;5.364;2023-02-19T12:00:28;6.50;;;2.20;;
69594;SDS011;56800;52.142;5.364;2023-02-19T12:08:54;4.57;;;3.00;;
69594;SDS011;56800;52.142;5.364;2023-02-19T12:20:10;4.10;;;2.10;;
69594;SDS011;56800;52.142;5.364;2023-02-19T12:23:00;3.30;;;1.88;;
69594;SDS011;56800;52.142;5.364;2023-02-19T12:31:16;3.10;;;1.90;;
69594;SDS011;56800;52.142;5.364;2023-02-19T12:36:53;2.20;;;1.45;;
69594;SDS011;56800;52.142;5.364;2023-02-19T12:45:36;3.22;;;1.92;;
69594;SDS011;56800;52.142;5.364;2023-02-19T12:50:39;4.18;;;1.70;;
69594;SDS011;56800;52.142;5.364;2023-02-19T12:53:30;3.40;;;1.83;;
69594;SDS011;56800;52.142;5.364;2023-02-19T12:56:18;3.33;;;1.73;;
69594;SDS011;56800;52.142;5.364;2023-02-19T12:58:52;2.45;;;1.40;;
69594;SDS011;56800;52.142;5.364;2023-02-19T13:01:27;3.17;;;1.60;;
69594;SDS011;56800;52.142;5.364;2023-02-19T13:04:13;5.63;;;1.60;;
69594;SDS011;56800;52.142;5.364;2023-02-19T13:06:52;3.47;;;1.90;;
69594;SDS011;56800;52.142;5.364;2023-02-19T13:12:25;3.05;;;1.90;;
69594;SDS011;56800;52.142;5.364;2023-02-19T13:15:00;5.57;;;2.20;;
69594;SDS011;56800;52.142;5.364;2023-02-19T13:20:23;6.20;;;2.20;;
69594;SDS011;56800;52.142;5.364;2023-02-19T13:32:06;3.63;;;1.90;;
69594;SDS011;56800;52.142;5.364;2023-02-19T13:34:52;3.80;;;2.17;;
69594;SDS011;56800;52.142;5.364;2023-02-19T13:37:39;3.72;;;1.90;;
69594;SDS011;56800;52.142;5.364;2023-02-19T13:42:57;3.77;;;1.87;;
69594;SDS011;56800;52.142;5.364;2023-02-19T13:45:30;6.35;;;1.77;;
69594;SDS011;56800;52.142;5.364;2023-02-19T13:51:37;4.78;;;2.40;;
69594;SDS011;56800;52.142;5.364;2023-02-19T14:02:12;3.40;;;1.60;;
69594;SDS011;56800;52.142;5.364;2023-02-19T14:04:50;3.15;;;1.70;;
69594;SDS011;56800;52.142;5.364;2023-02-19T14:09:51;3.67;;;1.60;;
69594;SDS011;56800;52.142;5.364;2023-02-19T14:12:20;2.22;;;1.35;;
69594;SDS011;56800;52.142;5.364;2023-02-19T14:14:55;3.25;;;1.60;;
69594;SDS011;56800;52.142;5.364;2023-02-19T14:20:01;3.85;;;1.58;;
69594;SDS011;56800;52.142;5.364;2023-02-19T14:28:03;4.40;;;1.38;;
69594;SDS011;56800;52.142;5.364;2023-02-19T14:30:54;3.10;;;1.40;;
69594;SDS011;56800;52.142;5.364;2023-02-19T14:33:24;5.43;;;1.40;;
69594;SDS011;56800;52.142;5.364;2023-02-19T14:36:04;3.40;;;1.40;;
69594;SDS011;56800;52.142;5.364;2023-02-19T14:38:44;2.95;;;1.10;;
69594;SDS011;56800;52.142;5.364;2023-02-19T14:41:15;2.88;;;1.30;;
69594;SDS011;56800;52.142;5.364;2023-02-19T14:43:43;3.33;;;1.05;;
69594;SDS011;56800;52.142;5.364;2023-02-19T14:46:33;1.58;;;1.00;;
69594;SDS011;56800;52.142;5.364;2023-02-19T14:49:06;3.43;;;0.70;;
69594;SDS011;56800;52.142;5.364;2023-02-19T14:51:49;5.28;;;0.70;;
69594;SDS011;56800;52.142;5.364;2023-02-19T14:57:02;4.25;;;1.25;;
69594;SDS011;56800;52.142;5.364;2023-02-19T14:59:33;3.33;;;1.35;;
69594;SDS011;56800;52.142;5.364;2023-02-19T15:02:00;3.27;;;1.30;;
69594;SDS011;56800;52.142;5.364;2023-02-19T15:04:38;3.72;;;1.27;;
69594;SDS011;56800;52.142;5.364;2023-02-19T15:07:06;3.63;;;1.77;;
69594;SDS011;56800;52.142;5.364;2023-02-19T15:09:37;3.35;;;1.80;;
69594;SDS011;56800;52.142;5.364;2023-02-19T15:12:07;3.03;;;1.50;;
69594;SDS011;56800;52.142;5.364;2023-02-19T15:14:41;3.33;;;1.33;;
69594;SDS011;56800;52.142;5.364;2023-02-19T15:17:09;4.03;;;1.40;;
69594;SDS011;56800;52.142;5.364;2023-02-19T15:19:42;3.53;;;1.58;;
69594;SDS011;56800;52.142;5.364;2023-02-19T15:22:17;2.17;;;1.30;;
69594;SDS011;56800;52.142;5.364;2023-02-19T15:24:46;2.22;;;1.30;;
69594;SDS011;56800;52.142;5.364;2023-02-19T15:27:17;3.13;;;1.03;;
69594;SDS011;56800;52.142;5.364;2023-02-19T15:29:47;2.63;;;1.10;;
69594;SDS011;56800;52.142;5.364;2023-02-19T15:32:21;2.35;;;1.13;;
69594;SDS011;56800;52.142;5.364;2023-02-19T15:34:58;1.60;;;0.90;;
69594;SDS011;56800;52.142;5.364;2023-02-19T15:37:30;3.70;;;1.20;;
69594;SDS011;56800;52.142;5.364;2023-02-19T15:40:00;4.17;;;1.10;;
69594;SDS011;56800;52.142;5.364;2023-02-19T15:42:32;1.80;;;0.95;;
69594;SDS011;56800;52.142;5.364;2023-02-19T15:45:03;3.42;;;1.50;;
69594;SDS011;56800;52.142;5.364;2023-02-19T15:55:29;5.75;;;1.40;;
69594;SDS011;56800;52.142;5.364;2023-02-19T16:03:21;2.10;;;1.20;;
69594;SDS011;56800;52.142;5.364;2023-02-19T16:05:56;2.47;;;1.10;;
69594;SDS011;56800;52.142;5.364;2023-02-19T16:08:30;3.90;;;1.10;;
69594;SDS011;56800;52.142;5.364;2023-02-19T16:10:59;1.83;;;1.23;;
69594;SDS011;56800;52.142;5.364;2023-02-19T16:13:28;1.63;;;1.00;;
69594;SDS011;56800;52.142;5.364;2023-02-19T16:16:12;3.80;;;1.08;;
69594;SDS011;56800;52.142;5.364;2023-02-19T16:18:45;2.80;;;0.90;;
69594;SDS011;56800;52.142;5.364;2023-02-19T16:21:14;2.13;;;1.05;;
69594;SDS011;56800;52.142;5.364;2023-02-19T16:23:45;2.95;;;1.30;;
69594;SDS011;56800;52.142;5.364;2023-02-19T16:26:14;1.98;;;0.98;;
69594;SDS011;56800;52.142;5.364;2023-02-19T16:28:41;4.65;;;1.20;;
69594;SDS011;56800;52.142;5.364;2023-02-19T16:31:08;3.87;;;1.20;;
69594;SDS011;56800;52.142;5.364;2023-02-19T16:33:47;2.20;;;1.00;;
69594;SDS011;56800;52.142;5.364;2023-02-19T16:42:07;3.72;;;1.85;;
69594;SDS011;56800;52.142;5.364;2023-02-19T16:46:53;2.60;;;1.67;;
69594;SDS011;56800;52.142;5.364;2023-02-19T16:49:22;5.07;;;1.73;;
69594;SDS011;56800;52.142;5.364;2023-02-19T16:51:49;4.20;;;2.00;;
69594;SDS011;56800;52.142;5.364;2023-02-19T16:54:16;4.78;;;2.10;;
69594;SDS011;56800;52.142;5.364;2023-02-19T16:56:43;4.20;;;2.23;;
69594;SDS011;56800;52.142;5.364;2023-02-19T16:59:10;5.82;;;2.67;;
69594;SDS011;56800;52.142;5.364;2023-02-19T17:01:36;5.88;;;2.50;;
69594;SDS011;56800;52.142;5.364;2023-02-19T17:04:04;4.90;;;2.72;;
69594;SDS011;56800;52.142;5.364;2023-02-19T17:06:34;3.97;;;2.63;;
69594;SDS011;56800;52.142;5.364;2023-02-19T17:09:03;3.60;;;2.50;;
69594;SDS011;56800;52.142;5.364;2023-02-19T17:11:31;3.45;;;2.28;;
69594;SDS011;56800;52.142;5.364;2023-02-19T17:13:58;3.72;;;2.40;;
69594;SDS011;56800;52.142;5.364;2023-02-19T17:16:25;3.80;;;2.25;;
69594;SDS011;56800;52.142;5.364;2023-02-19T17:18:56;4.00;;;2.13;;
69594;SDS011;56800;52.142;5.364;2023-02-19T17:21:25;3.93;;;2.00;;
69594;SDS011;56800;52.142;5.364;2023-02-19T17:23:53;2.45;;;1.73;;
69594;SDS011;56800;52.142;5.364;2023-02-19T17:26:23;4.00;;;2.00;;
69594;SDS011;56800;52.142;5.364;2023-02-19T17:28:54;3.05;;;1.80;;
69594;SDS011;56800;52.142;5.364;2023-02-19T17:31:21;9.75;;;2.03;;
69594;SDS011;56800;52.142;5.364;2023-02-19T17:33:48;4.13;;;2.00;;
69594;SDS011;56800;52.142;5.364;2023-02-19T17:36:17;2.70;;;1.60;;